Terminal Aerodrome Forecast
Issued by NWS Sioux Falls, SD

Home | Current Version | Previous Version | Text Only | Print | Product List | Glossary Off
Versions: 1 2 3 4 5 6 7 8 9 10 11 12 13 14 15 16

000
FTUS43 KFSD 211120
TAFHON
TAF
KHON 211120Z 2112/2212 14005KT P6SM FEW100 SCT200
     FM211500 10009KT P6SM SCT250
     FM212000 11006KT P6SM SCT070
     FM220300 07006KT P6SM SCT070 BKN120=

USA.gov is the U.S. government's official web portal to all federal, state and local government web resources and services.